Time;durP1;ratioP1;P1;durP2;ratioP2;P2;SDS_P1;SDS_P2;PMS_P1;PMS_P2;Temp;Humidity;BMP_temperature;BMP_pressure;BME280_temperature;BME280_humidity;BME280_pressure;Samples;Min_cycle;Max_cycle;Signal;HPM_P1;HPM_P2
2023/11/29 00:00:21;;;;;;;23.00;20.58;;;1.90;99.90;;;;;;5060018;28;20051;-77
2023/11/29 00:02:46;;;;;;;22.63;19.05;;;1.90;99.90;;;;;;5072260;28;20536;-77
2023/11/29 00:05:12;;;;;;;18.90;16.80;;;1.90;99.90;;;;;;5077721;28;20032;-77
2023/11/29 00:07:43;;;;;;;23.17;17.15;;;1.90;99.90;;;;;;5085011;28;20507;-77
2023/11/29 00:10:10;;;;;;;17.80;14.63;;;1.90;99.90;;;;;;5106220;27;20406;-77
2023/11/29 00:12:36;;;;;;;12.82;10.40;;;1.90;99.90;;;;;;5086189;28;20518;-79
2023/11/29 00:15:04;;;;;;;12.55;9.13;;;1.80;99.90;;;;;;5072500;28;20044;-80
2023/11/29 00:17:30;;;;;;;10.05;7.05;;;1.80;99.90;;;;;;5086221;28;20043;-80
2023/11/29 00:19:56;;;;;;;11.20;7.30;;;1.70;99.90;;;;;;5068897;28;20051;-80
2023/11/29 00:22:24;;;;;;;15.65;8.85;;;1.60;99.90;;;;;;5082731;28;20457;-80
2023/11/29 00:24:50;;;;;;;13.95;8.27;;;1.70;99.90;;;;;;5079876;28;20569;-80
2023/11/29 00:27:17;;;;;;;28.15;12.27;;;1.50;99.90;;;;;;5083249;28;20107;-79
2023/11/29 00:29:43;;;;;;;21.85;11.05;;;1.60;99.90;;;;;;5066757;28;20082;-79
2023/11/29 00:32:10;;;;;;;31.40;12.57;;;1.50;99.90;;;;;;5076569;28;20040;-79
2023/11/29 00:34:36;;;;;;;31.23;12.45;;;1.40;99.90;;;;;;5094831;28;20052;-78
2023/11/29 00:37:04;;;;;;;22.67;11.18;;;1.40;99.90;;;;;;5085739;28;20044;-77
2023/11/29 00:39:30;;;;;;;13.45;9.18;;;1.40;99.90;;;;;;5071899;28;20379;-77
2023/11/29 00:41:56;;;;;;;12.18;9.32;;;1.40;99.90;;;;;;5063134;28;20103;-76
2023/11/29 00:44:22;;;;;;;20.95;11.85;;;1.40;99.90;;;;;;5083212;28;20493;-77
2023/11/29 00:46:48;;;;;;;11.60;10.38;;;1.30;99.90;;;;;;5079575;28;20155;-77
2023/11/29 00:49:17;;;;;;;13.20;10.65;;;1.30;99.90;;;;;;5078324;28;20140;-77
2023/11/29 00:51:43;;;;;;;11.73;10.43;;;1.30;99.90;;;;;;5066546;28;20070;-77
2023/11/29 00:54:08;;;;;;;15.10;12.43;;;1.30;99.90;;;;;;5075052;28;20051;-77
2023/11/29 00:56:34;;;;;;;19.00;14.82;;;1.20;99.90;;;;;;5063629;28;20491;-77
2023/11/29 00:59:00;;;;;;;17.55;13.93;;;1.20;99.90;;;;;;5069006;28;20039;-78
2023/11/29 01:01:26;;;;;;;21.60;14.30;;;1.20;99.90;;;;;;5085086;28;20093;-78
2023/11/29 01:03:52;;;;;;;22.10;14.23;;;1.30;99.90;;;;;;5061518;28;20048;-78
2023/11/29 01:06:18;;;;;;;12.27;10.67;;;1.20;99.90;;;;;;5067842;28;20028;-78
2023/11/29 01:08:43;;;;;;;19.80;13.10;;;1.30;99.90;;;;;;5076942;28;20052;-77
2023/11/29 01:11:09;;;;;;;9.75;8.70;;;1.20;99.90;;;;;;5064045;28;20281;-78
2023/11/29 01:13:35;;;;;;;15.02;9.15;;;1.10;99.90;;;;;;5060521;28;20041;-78
2023/11/29 01:16:01;;;;;;;15.43;7.45;;;1.20;99.90;;;;;;5056880;28;20134;-79
2023/11/29 01:18:27;;;;;;;7.82;4.47;;;1.20;99.90;;;;;;5068974;28;20066;-79
2023/11/29 01:20:54;;;;;;;4.40;2.80;;;1.20;99.90;;;;;;5064978;28;20126;-78
2023/11/29 01:23:20;;;;;;;5.63;2.50;;;1.20;99.90;;;;;;5079771;28;20105;-79
2023/11/29 01:25:45;;;;;;;2.33;1.50;;;1.20;99.90;;;;;;5086773;28;20090;-78
2023/11/29 01:28:11;;;;;;;2.53;1.45;;;1.20;99.90;;;;;;5063045;28;20169;-77
2023/11/29 01:30:37;;;;;;;2.50;1.13;;;1.20;99.90;;;;;;5065010;28;20482;-78
2023/11/29 01:33:03;;;;;;;2.00;1.30;;;1.20;99.90;;;;;;5081882;28;20047;-77
2023/11/29 01:35:28;;;;;;;3.05;1.40;;;1.20;99.90;;;;;;5077758;28;20521;-78
2023/11/29 01:37:54;;;;;;;2.55;1.73;;;1.20;99.90;;;;;;5064082;28;20620;-77
2023/11/29 01:40:20;;;;;;;4.82;3.00;;;1.20;99.90;;;;;;5065565;28;20043;-77
2023/11/29 01:42:46;;;;;;;5.47;3.88;;;1.20;99.90;;;;;;5080320;28;20130;-78
2023/11/29 01:45:12;;;;;;;11.55;6.47;;;1.20;99.90;;;;;;5080327;28;20068;-78
2023/11/29 01:47:38;;;;;;;15.77;8.93;;;1.20;99.90;;;;;;5064124;28;20140;-78
2023/11/29 01:50:05;;;;;;;10.88;8.25;;;1.20;99.90;;;;;;5071187;28;20062;-78
2023/11/29 01:52:33;;;;;;;11.50;9.80;;;1.20;99.90;;;;;;5085074;28;20032;-78
2023/11/29 01:54:59;;;;;;;14.35;10.50;;;1.30;99.90;;;;;;5080524;28;20095;-77
2023/11/29 01:57:25;;;;;;;13.53;11.83;;;1.20;99.90;;;;;;5068454;28;20040;-78
2023/11/29 01:59:51;;;;;;;13.57;12.18;;;1.30;99.90;;;;;;5080042;28;20041;-78
2023/11/29 02:02:18;;;;;;;13.13;11.75;;;1.20;99.90;;;;;;5079643;28;20102;-78
2023/11/29 02:04:45;;;;;;;15.15;13.15;;;1.30;99.90;;;;;;5076316;28;20502;-77
2023/11/29 02:07:11;;;;;;;16.10;14.02;;;1.30;99.90;;;;;;5068433;28;20040;-79
2023/11/29 02:09:39;;;;;;;19.70;14.98;;;1.30;99.90;;;;;;5077117;28;20059;-78
2023/11/29 02:12:06;;;;;;;23.65;15.85;;;1.30;99.90;;;;;;5069817;28;20117;-78
2023/11/29 02:14:41;;;;;;;25.77;17.27;;;1.30;99.90;;;;;;5077775;28;20101;-79
2023/11/29 02:17:07;;;;;;;31.83;17.23;;;1.30;99.90;;;;;;5081178;28;20129;-79
2023/11/29 02:19:33;;;;;;;19.13;15.45;;;1.30;99.90;;;;;;5083307;28;20036;-78
2023/11/29 02:21:59;;;;;;;20.17;15.95;;;1.30;99.90;;;;;;5080166;28;20143;-78
2023/11/29 02:24:34;;;;;;;19.05;15.57;;;1.30;99.90;;;;;;5069800;28;20126;-78
2023/11/29 02:27:00;;;;;;;18.58;14.82;;;1.30;99.90;;;;;;5083182;28;20072;-78
2023/11/29 02:29:26;;;;;;;16.35;14.02;;;1.30;99.90;;;;;;5086390;28;20097;-78
2023/11/29 02:31:52;;;;;;;16.67;12.57;;;1.40;99.90;;;;;;5068492;28;20040;-78
2023/11/29 02:34:17;;;;;;;16.80;10.90;;;1.40;99.90;;;;;;5071073;28;20036;-77
2023/11/29 02:36:43;;;;;;;12.90;10.18;;;1.40;99.90;;;;;;5095441;28;20052;-77
2023/11/29 02:39:09;;;;;;;11.70;9.05;;;1.40;99.90;;;;;;5065704;28;20047;-78
2023/11/29 02:41:38;;;;;;;9.73;6.93;;;1.40;99.90;;;;;;5059714;28;20036;-77
2023/11/29 02:44:04;;;;;;;9.77;5.95;;;1.40;99.90;;;;;;5069301;28;20153;-78
2023/11/29 02:46:30;;;;;;;8.75;5.25;;;1.40;99.90;;;;;;5079512;28;20043;-77
2023/11/29 02:48:57;;;;;;;6.78;4.53;;;1.40;99.90;;;;;;5069007;28;20047;-77
2023/11/29 02:51:27;;;;;;;5.50;3.92;;;1.40;99.90;;;;;;5074596;28;20075;-77
2023/11/29 02:53:53;;;;;;;5.95;3.35;;;1.40;99.90;;;;;;5089969;28;20157;-77
2023/11/29 02:56:19;;;;;;;4.60;3.22;;;1.50;99.90;;;;;;5088110;28;20048;-77
2023/11/29 02:58:45;;;;;;;4.45;3.17;;;1.30;99.90;;;;;;5080360;28;21006;-77
2023/11/29 03:01:11;;;;;;;4.80;3.45;;;1.40;99.90;;;;;;5062378;28;20370;-76
2023/11/29 03:03:37;;;;;;;6.78;4.50;;;1.50;99.90;;;;;;5064693;28;20078;-77
2023/11/29 03:06:03;;;;;;;5.10;3.63;;;1.30;99.90;;;;;;5083910;28;20102;-78
2023/11/29 03:08:28;;;;;;;7.95;6.03;;;1.40;99.90;;;;;;5079566;28;20051;-77
2023/11/29 03:10:54;;;;;;;8.68;6.05;;;1.40;99.90;;;;;;5080536;28;21987;-78
2023/11/29 03:13:20;;;;;;;6.75;5.70;;;1.40;99.90;;;;;;5083034;28;20054;-76
2023/11/29 03:15:46;;;;;;;7.30;6.07;;;1.40;99.90;;;;;;5083895;28;20060;-76
2023/11/29 03:18:12;;;;;;;8.45;7.20;;;1.40;99.90;;;;;;5082509;28;20127;-76
2023/11/29 03:20:37;;;;;;;9.65;7.68;;;1.40;99.90;;;;;;5081080;28;20054;-76
2023/11/29 03:23:03;;;;;;;9.77;7.80;;;1.30;99.90;;;;;;5064748;28;20451;-77
2023/11/29 03:25:29;;;;;;;10.48;7.43;;;1.40;99.90;;;;;;5073090;28;20072;-76
2023/11/29 03:27:55;;;;;;;11.05;8.18;;;1.30;99.90;;;;;;5084707;28;20063;-77
2023/11/29 03:30:20;;;;;;;13.32;8.57;;;1.40;99.90;;;;;;5083403;28;20036;-77
2023/11/29 03:32:46;;;;;;;12.02;8.52;;;1.30;99.90;;;;;;5064582;28;20039;-77
2023/11/29 03:35:12;;;;;;;13.20;9.70;;;1.30;99.90;;;;;;5068402;28;20043;-78
2023/11/29 03:37:38;;;;;;;11.43;8.60;;;1.40;99.90;;;;;;5078745;28;20039;-77
2023/11/29 03:40:04;;;;;;;10.93;8.82;;;1.40;99.90;;;;;;5067222;28;20040;-77
2023/11/29 03:42:30;;;;;;;12.38;8.88;;;1.40;99.90;;;;;;5068271;28;20608;-79
2023/11/29 03:44:56;;;;;;;11.68;9.27;;;1.40;99.90;;;;;;5085030;28;20052;-77
2023/11/29 03:47:24;;;;;;;13.35;10.23;;;1.40;99.90;;;;;;5086436;28;20127;-77
2023/11/29 03:49:50;;;;;;;12.27;9.18;;;1.40;99.90;;;;;;5081044;28;20052;-78
2023/11/29 03:52:19;;;;;;;14.25;10.52;;;1.40;99.90;;;;;;5091974;28;20042;-78
2023/11/29 03:54:45;;;;;;;12.30;10.95;;;1.40;99.90;;;;;;5065729;28;20517;-79
2023/11/29 03:57:11;;;;;;;12.65;10.32;;;1.50;99.90;;;;;;5077766;28;20040;-78
2023/11/29 03:59:39;;;;;;;11.93;10.73;;;1.50;99.90;;;;;;5070276;28;20563;-77
2023/11/29 04:02:04;;;;;;;18.13;12.75;;;1.50;99.90;;;;;;5071482;28;20039;-78
2023/11/29 04:04:30;;;;;;;13.00;11.77;;;1.50;99.90;;;;;;5081198;28;20048;-78
2023/11/29 04:06:56;;;;;;;16.45;12.73;;;1.60;99.90;;;;;;5086346;28;20050;-78
2023/11/29 04:09:22;;;;;;;16.65;13.80;;;1.50;99.90;;;;;;5079236;28;20149;-77
2023/11/29 04:11:47;;;;;;;17.10;13.32;;;1.50;99.90;;;;;;5073036;28;20070;-77
2023/11/29 04:14:13;;;;;;;15.70;12.77;;;1.50;99.90;;;;;;5061687;28;20039;-77
2023/11/29 04:16:39;;;;;;;13.87;11.87;;;1.60;99.90;;;;;;5074080;28;20719;-77
2023/11/29 04:19:05;;;;;;;16.90;13.98;;;1.50;99.90;;;;;;5062283;28;20059;-78
2023/11/29 04:21:32;;;;;;;18.38;13.52;;;1.50;99.90;;;;;;5062293;28;20044;-78
2023/11/29 04:23:59;;;;;;;16.92;12.93;;;1.50;99.90;;;;;;5082609;28;20511;-78
2023/11/29 04:26:34;;;;;;;16.42;13.07;;;1.50;99.90;;;;;;5067183;28;20046;-78
2023/11/29 04:29:02;;;;;;;19.75;13.40;;;1.60;99.90;;;;;;5083219;28;20052;-78
2023/11/29 04:31:29;;;;;;;25.25;14.73;;;1.50;99.90;;;;;;5078263;28;20094;-78
2023/11/29 04:33:55;;;;;;;15.35;11.63;;;1.50;99.90;;;;;;5064017;28;20048;-78
2023/11/29 04:36:24;;;;;;;17.77;12.38;;;1.50;99.90;;;;;;5082852;28;20036;-79
2023/11/29 04:38:52;;;;;;;15.70;11.55;;;1.50;99.90;;;;;;5085847;28;20059;-79
2023/11/29 04:41:18;;;;;;;13.65;11.50;;;1.50;99.90;;;;;;5066814;28;20036;-79
2023/11/29 04:43:44;;;;;;;14.10;11.63;;;1.50;99.90;;;;;;5078106;28;20051;-79
2023/11/29 04:46:11;;;;;;;14.60;10.23;;;1.50;99.90;;;;;;5067723;28;20039;-79
2023/11/29 04:48:38;;;;;;;11.90;9.13;;;1.50;99.90;;;;;;5080433;28;20039;-79
2023/11/29 04:51:04;;;;;;;12.20;8.25;;;1.50;99.90;;;;;;5080739;28;20472;-78
2023/11/29 04:53:30;;;;;;;13.52;9.52;;;1.60;99.90;;;;;;5062538;28;20046;-79
2023/11/29 04:55:56;;;;;;;12.77;8.75;;;1.60;99.90;;;;;;5080858;28;20126;-79
2023/11/29 04:58:25;;;;;;;13.30;9.60;;;1.60;99.90;;;;;;5086926;28;20037;-79
2023/11/29 05:00:54;;;;;;;13.73;9.70;;;1.50;99.90;;;;;;5079035;28;20085;-79
2023/11/29 05:03:20;;;;;;;15.55;9.90;;;1.60;99.90;;;;;;5065893;28;20122;-79
2023/11/29 05:05:46;;;;;;;20.42;11.05;;;1.70;99.90;;;;;;5060849;28;20086;-79
2023/11/29 05:08:12;;;;;;;14.55;10.32;;;1.60;99.90;;;;;;5071599;28;20043;-79
2023/11/29 05:10:38;;;;;;;18.75;11.30;;;1.60;99.90;;;;;;5062339;28;20037;-79
2023/11/29 05:13:06;;;;;;;15.70;10.75;;;1.60;99.90;;;;;;5061281;28;20079;-79
2023/11/29 05:15:35;;;;;;;14.57;10.52;;;1.60;99.90;;;;;;5072266;28;20514;-79
2023/11/29 05:18:05;;;;;;;13.68;9.93;;;1.50;99.90;;;;;;5083208;28;20370;-79
2023/11/29 05:20:31;;;;;;;12.30;9.40;;;1.50;99.90;;;;;;5082380;28;20499;-78
2023/11/29 05:22:57;;;;;;;14.38;9.60;;;1.60;99.90;;;;;;5085961;28;20083;-79
2023/11/29 05:25:24;;;;;;;19.02;12.18;;;1.50;99.90;;;;;;5067241;28;20036;-80
2023/11/29 05:27:50;;;;;;;17.02;10.35;;;1.60;99.90;;;;;;5078757;28;20047;-79
2023/11/29 05:30:16;;;;;;;17.23;9.82;;;1.60;99.90;;;;;;5062580;28;20044;-79
2023/11/29 05:32:42;;;;;;;15.18;8.70;;;1.60;99.90;;;;;;5072684;28;20054;-79
2023/11/29 05:35:08;;;;;;;15.75;7.90;;;1.70;99.90;;;;;;5058678;28;20044;-78
2023/11/29 05:37:34;;;;;;;12.90;7.93;;;1.60;99.90;;;;;;5061559;28;20032;-78
2023/11/29 05:39:59;;;;;;;11.52;6.88;;;1.60;99.90;;;;;;5075304;28;20394;-77
2023/11/29 05:42:25;;;;;;;12.88;6.20;;;1.70;99.90;;;;;;5075898;28;20075;-77
2023/11/29 05:44:54;;;;;;;15.50;6.25;;;1.70;99.90;;;;;;5084895;28;20054;-78
2023/11/29 05:47:21;;;;;;;11.85;6.05;;;1.70;99.90;;;;;;5079234;28;20048;-77
2023/11/29 05:49:52;;;;;;;12.52;5.60;;;1.70;99.90;;;;;;5062144;28;20475;-78
2023/11/29 05:52:18;;;;;;;13.40;6.32;;;1.80;99.90;;;;;;5084703;28;20032;-78
2023/11/29 05:54:47;;;;;;;13.02;5.93;;;1.70;99.90;;;;;;5079380;28;20567;-77
2023/11/29 05:57:16;;;;;;;14.52;6.25;;;1.80;99.90;;;;;;5089250;28;20040;-76
2023/11/29 05:59:42;;;;;;;15.35;5.65;;;1.80;99.90;;;;;;5079800;28;20049;-78
2023/11/29 06:02:08;;;;;;;13.07;5.40;;;1.80;99.90;;;;;;5084257;28;20034;-78
2023/11/29 06:04:33;;;;;;;13.27;4.43;;;1.80;99.90;;;;;;5063645;28;20037;-77
2023/11/29 06:06:59;;;;;;;10.52;4.50;;;1.80;99.90;;;;;;5081845;28;20061;-77
2023/11/29 06:09:28;;;;;;;7.88;3.22;;;1.80;99.90;;;;;;5081135;28;20082;-77
2023/11/29 06:11:57;;;;;;;8.50;3.28;;;1.90;99.90;;;;;;5079889;28;20056;-77
2023/11/29 06:14:25;;;;;;;9.23;4.45;;;2.00;99.90;;;;;;5068909;28;20463;-77
2023/11/29 06:16:54;;;;;;;7.47;5.05;;;2.00;99.90;;;;;;5060426;28;20121;-77
2023/11/29 06:19:23;;;;;;;12.52;6.68;;;2.00;99.90;;;;;;5082900;28;20043;-77
2023/11/29 06:21:48;;;;;;;8.57;6.90;;;2.10;99.90;;;;;;5065674;28;20055;-77
2023/11/29 06:24:14;;;;;;;10.77;8.40;;;2.10;99.90;;;;;;5066182;28;20131;-77
2023/11/29 06:26:41;;;;;;;14.43;9.70;;;2.10;99.90;;;;;;5078092;28;20342;-77
2023/11/29 06:29:10;;;;;;;14.02;10.10;;;2.00;99.90;;;;;;5065307;28;20466;-76
2023/11/29 06:31:39;;;;;;;13.65;9.80;;;2.20;99.90;;;;;;5076981;28;20059;-76
2023/11/29 06:34:08;;;;;;;16.83;10.93;;;2.10;99.90;;;;;;5059990;28;20486;-76
2023/11/29 06:36:34;;;;;;;17.33;11.57;;;2.00;99.90;;;;;;5078088;28;20107;-77
2023/11/29 06:39:00;;;;;;;15.45;11.70;;;2.00;99.90;;;;;;5062396;28;20057;-76
2023/11/29 06:41:26;;;;;;;16.77;11.25;;;2.10;99.90;;;;;;5077668;28;20043;-78
2023/11/29 06:43:53;;;;;;;29.25;13.15;;;2.00;99.90;;;;;;5070664;28;20063;-74
2023/11/29 06:46:19;;;;;;;19.30;12.45;;;2.00;99.90;;;;;;5063238;28;20048;-75
2023/11/29 06:48:45;;;;;;;16.27;11.55;;;2.10;99.90;;;;;;5062697;28;20044;-73
2023/11/29 06:51:11;;;;;;;19.23;12.05;;;2.10;99.90;;;;;;5062490;28;20417;-75
2023/11/29 06:53:37;;;;;;;16.95;12.38;;;2.10;99.90;;;;;;5071346;28;20542;-75
2023/11/29 06:56:04;;;;;;;17.42;11.80;;;2.10;99.90;;;;;;5068306;28;20082;-76
2023/11/29 06:58:30;;;;;;;19.65;11.98;;;2.10;99.90;;;;;;5075130;28;20032;-76
2023/11/29 07:00:56;;;;;;;16.35;13.02;;;2.10;99.90;;;;;;5085035;28;20066;-75
2023/11/29 07:03:27;;;;;;;14.48;12.18;;;2.00;99.90;;;;;;5078788;28;20111;-75
2023/11/29 07:05:57;;;;;;;16.85;12.20;;;2.10;99.90;;;;;;5063612;28;20482;-73
2023/11/29 07:08:22;;;;;;;21.25;13.68;;;2.00;99.90;;;;;;5082793;28;20040;-74
2023/11/29 07:10:48;;;;;;;23.25;14.75;;;2.10;99.90;;;;;;5077989;28;20426;-74
2023/11/29 07:13:14;;;;;;;18.25;13.93;;;2.00;99.90;;;;;;5064786;28;20453;-74
2023/11/29 07:15:40;;;;;;;20.05;14.32;;;2.00;99.90;;;;;;5081570;28;20067;-75
2023/11/29 07:18:05;;;;;;;21.15;13.60;;;2.00;99.90;;;;;;5067535;28;20399;-74
2023/11/29 07:20:31;;;;;;;18.63;12.85;;;2.10;99.90;;;;;;5086537;28;20036;-74
2023/11/29 07:22:57;;;;;;;15.73;11.77;;;2.00;99.90;;;;;;5065950;28;20097;-74
2023/11/29 07:25:22;;;;;;;15.25;11.65;;;2.20;99.90;;;;;;5081375;28;20202;-75
2023/11/29 07:27:48;;;;;;;14.77;11.60;;;2.10;99.90;;;;;;5084657;28;20513;-75
2023/11/29 07:30:14;;;;;;;16.00;10.73;;;2.20;99.90;;;;;;5067498;28;20131;-75
2023/11/29 07:32:42;;;;;;;15.70;11.88;;;2.10;99.90;;;;;;5078674;28;20135;-78
2023/11/29 07:35:08;;;;;;;14.45;10.82;;;2.10;99.90;;;;;;5066948;28;20032;-75
2023/11/29 07:37:34;;;;;;;13.23;11.45;;;2.10;99.90;;;;;;5082673;28;20109;-75
2023/11/29 07:39:59;;;;;;;15.85;10.15;;;2.20;99.90;;;;;;5068616;28;20044;-75
2023/11/29 07:42:25;;;;;;;11.45;9.60;;;2.10;99.90;;;;;;5084195;28;20123;-75
2023/11/29 07:44:51;;;;;;;13.93;9.23;;;2.10;99.90;;;;;;5061834;28;20071;-75
2023/11/29 07:47:17;;;;;;;11.38;8.85;;;2.10;99.90;;;;;;5080538;28;20394;-74
2023/11/29 07:49:43;;;;;;;10.73;8.05;;;2.00;99.90;;;;;;5084095;28;20056;-75
2023/11/29 07:52:09;;;;;;;11.68;7.88;;;2.00;99.90;;;;;;5069229;28;20513;-74
2023/11/29 07:54:34;;;;;;;11.38;7.22;;;2.00;99.90;;;;;;5066795;28;20123;-75
2023/11/29 07:57:00;;;;;;;10.48;7.25;;;2.00;99.90;;;;;;5084069;28;20052;-75
2023/11/29 07:59:26;;;;;;;9.48;8.18;;;2.00;99.90;;;;;;5066590;28;20064;-75
2023/11/29 08:01:52;;;;;;;12.68;7.90;;;2.00;99.90;;;;;;5078921;28;20047;-75
2023/11/29 08:04:18;;;;;;;20.45;7.03;;;1.90;99.90;;;;;;5079844;28;20400;-74
2023/11/29 08:06:44;;;;;;;8.65;6.40;;;1.90;99.90;;;;;;5083038;28;20036;-74
2023/11/29 08:09:10;;;;;;;11.02;6.75;;;2.00;99.90;;;;;;5079728;28;20074;-75
2023/11/29 08:11:36;;;;;;;8.88;6.25;;;2.00;99.90;;;;;;5077354;28;20127;-75
2023/11/29 08:14:02;;;;;;;8.95;5.95;;;2.00;99.90;;;;;;5064486;28;20402;-75
2023/11/29 08:16:28;;;;;;;6.75;5.53;;;1.90;99.90;;;;;;5079940;28;20040;-75
2023/11/29 08:18:55;;;;;;;9.40;5.90;;;1.90;99.90;;;;;;5077506;28;20085;-75
2023/11/29 08:21:21;;;;;;;9.48;6.35;;;1.90;99.90;;;;;;5082351;28;20471;-74
2023/11/29 08:23:47;;;;;;;6.97;6.28;;;1.90;99.90;;;;;;5081304;28;20087;-75
2023/11/29 08:26:13;;;;;;;9.90;6.57;;;1.80;99.90;;;;;;5068311;28;20479;-75
2023/11/29 08:28:38;;;;;;;10.23;6.72;;;1.90;99.90;;;;;;5078974;28;20483;-75
2023/11/29 08:31:04;;;;;;;9.82;6.72;;;1.80;99.90;;;;;;5067609;28;20040;-74
2023/11/29 08:33:30;;;;;;;9.77;6.43;;;1.80;99.90;;;;;;5080875;28;20047;-75
2023/11/29 08:35:56;;;;;;;9.55;6.65;;;1.80;99.90;;;;;;5065793;28;20548;-75
2023/11/29 08:38:23;;;;;;;9.15;6.57;;;1.80;99.90;;;;;;5077293;28;20403;-75
2023/11/29 08:40:50;;;;;;;12.85;7.25;;;1.80;99.90;;;;;;5077532;28;20119;-75
2023/11/29 08:43:15;;;;;;;9.75;6.40;;;1.70;99.90;;;;;;5078094;28;20032;-74
2023/11/29 08:45:41;;;;;;;11.38;7.07;;;1.70;99.90;;;;;;5072355;28;20428;-74
2023/11/29 08:48:08;;;;;;;8.57;6.50;;;1.70;99.90;;;;;;5083378;28;20036;-74
2023/11/29 08:50:34;;;;;;;12.93;8.43;;;1.70;99.90;;;;;;5082525;28;20505;-74
2023/11/29 08:52:59;;;;;;;11.05;6.82;;;1.70;99.90;;;;;;5065003;28;20563;-74
2023/11/29 08:55:25;;;;;;;7.78;6.55;;;1.70;99.90;;;;;;5079249;28;20040;-74
2023/11/29 08:57:53;;;;;;;10.88;7.05;;;1.70;99.90;;;;;;5078119;28;20431;-75
2023/11/29 09:00:21;;;;;;;9.27;7.25;;;1.70;99.90;;;;;;5072713;28;20040;-75
2023/11/29 09:02:47;;;;;;;9.48;6.20;;;1.70;99.90;;;;;;5061971;28;20044;-74
2023/11/29 09:05:13;;;;;;;7.40;6.00;;;1.70;99.90;;;;;;5078574;28;20047;-74
2023/11/29 09:07:39;;;;;;;11.68;5.65;;;1.70;99.90;;;;;;5079001;28;20046;-75
2023/11/29 09:10:05;;;;;;;12.02;5.82;;;1.70;99.90;;;;;;5065280;28;20051;-74
2023/11/29 09:12:31;;;;;;;9.10;5.93;;;1.80;99.90;;;;;;5064002;28;20086;-74
2023/11/29 09:15:00;;;;;;;8.70;4.90;;;1.80;99.90;;;;;;5063387;28;20452;-74
2023/11/29 09:17:26;;;;;;;8.25;5.47;;;1.80;99.90;;;;;;5058533;28;20032;-75
2023/11/29 09:19:55;;;;;;;9.77;4.80;;;1.80;99.90;;;;;;5092690;28;20047;-75
2023/11/29 09:22:21;;;;;;;7.43;5.13;;;1.80;99.90;;;;;;5065173;28;20052;-75
2023/11/29 09:24:48;;;;;;;8.40;4.95;;;1.90;99.90;;;;;;5072986;28;20043;-75
2023/11/29 09:27:14;;;;;;;8.18;5.50;;;1.90;99.90;;;;;;5079494;28;20037;-75
2023/11/29 09:29:40;;;;;;;11.23;5.20;;;1.90;99.90;;;;;;5079589;28;20042;-75
2023/11/29 09:32:06;;;;;;;7.65;4.65;;;1.90;99.90;;;;;;5072026;28;20573;-76
2023/11/29 09:34:32;;;;;;;8.02;4.20;;;2.00;99.90;;;;;;5082549;28;20048;-75
2023/11/29 09:37:00;;;;;;;9.63;4.03;;;2.00;99.90;;;;;;5078188;28;20520;-75
2023/11/29 09:39:30;;;;;;;6.90;4.90;;;2.00;99.90;;;;;;5073483;28;20040;-74
2023/11/29 09:41:58;;;;;;;8.30;4.18;;;2.10;99.90;;;;;;5085903;28;20047;-74
2023/11/29 09:44:27;;;;;;;8.60;4.22;;;2.10;99.90;;;;;;5078954;28;20278;-74
2023/11/29 09:46:53;;;;;;;6.28;4.07;;;2.10;99.90;;;;;;5079654;28;20036;-74
2023/11/29 09:49:25;;;;;;;9.05;4.10;;;2.10;99.90;;;;;;5066500;28;20047;-74
2023/11/29 09:51:51;;;;;;;7.20;4.25;;;2.10;99.90;;;;;;5077643;28;20178;-74
2023/11/29 09:54:17;;;;;;;9.93;4.30;;;2.20;99.90;;;;;;5064180;28;20115;-74
2023/11/29 09:56:43;;;;;;;6.22;3.63;;;2.20;99.90;;;;;;5063661;28;20139;-74
2023/11/29 09:59:09;;;;;;;6.43;3.70;;;2.20;99.90;;;;;;5082740;28;20193;-74
2023/11/29 10:01:45;;;;;;;7.70;3.83;;;2.30;99.90;;;;;;5060468;28;20039;-74
2023/11/29 10:04:11;;;;;;;8.25;3.63;;;2.30;99.90;;;;;;5078544;28;20513;-74
2023/11/29 10:06:36;;;;;;;6.15;3.67;;;2.30;99.90;;;;;;5064375;28;20044;-74
2023/11/29 10:09:05;;;;;;;7.18;3.47;;;2.30;99.90;;;;;;5079470;28;20213;-75
2023/11/29 10:11:32;;;;;;;5.65;3.90;;;2.40;99.90;;;;;;5081930;28;20040;-74
2023/11/29 10:13:58;;;;;;;7.50;3.72;;;2.40;99.90;;;;;;5084119;28;20052;-74
2023/11/29 10:16:27;;;;;;;9.13;3.95;;;2.40;99.90;;;;;;5069697;28;20044;-74
2023/11/29 10:18:52;;;;;;;5.72;4.03;;;2.40;99.90;;;;;;5074459;28;20040;-74
2023/11/29 10:21:19;;;;;;;7.03;3.65;;;2.40;99.90;;;;;;5066076;28;20032;-75
2023/11/29 10:23:47;;;;;;;6.20;3.65;;;2.40;99.90;;;;;;5079678;28;20166;-75
2023/11/29 10:26:14;;;;;;;9.20;4.15;;;2.50;99.90;;;;;;5083937;28;20043;-76
2023/11/29 10:28:40;;;;;;;6.15;3.03;;;2.50;99.90;;;;;;5073264;28;20032;-76
2023/11/29 10:31:07;;;;;;;4.93;2.97;;;2.50;99.90;;;;;;5090182;28;20044;-75
2023/11/29 10:33:33;;;;;;;6.38;3.30;;;2.50;99.90;;;;;;5065101;28;20040;-75
2023/11/29 10:36:01;;;;;;;6.88;3.97;;;2.60;99.90;;;;;;5066470;28;20547;-75
2023/11/29 10:38:29;;;;;;;8.25;3.50;;;2.60;99.90;;;;;;5071606;28;20036;-75
2023/11/29 10:40:59;;;;;;;7.55;3.70;;;2.70;99.90;;;;;;5082408;28;20047;-75
2023/11/29 10:43:29;;;;;;;7.78;3.53;;;2.60;99.90;;;;;;5084767;28;20141;-75
2023/11/29 10:46:06;;;;;;;8.45;4.13;;;2.70;99.90;;;;;;5083462;28;20564;-73
2023/11/29 10:48:36;;;;;;;10.07;5.95;;;2.70;99.90;;;;;;5067996;28;20046;-73
2023/11/29 10:51:03;;;;;;;8.98;4.40;;;2.70;99.90;;;;;;5071401;28;20083;-76
2023/11/29 10:53:31;;;;;;;6.55;3.28;;;2.70;99.90;;;;;;5081833;28;20606;-75
2023/11/29 10:55:58;;;;;;;9.32;5.85;;;2.70;99.90;;;;;;5085756;28;20063;-75
2023/11/29 10:58:48;;;;;;;8.10;3.90;;;2.70;99.90;;;;;;5089715;28;20521;-75
2023/11/29 11:01:14;;;;;;;7.27;3.40;;;2.80;99.90;;;;;;5077215;28;20048;-75
2023/11/29 11:03:45;;;;;;;6.65;3.47;;;2.80;99.90;;;;;;5075286;28;20395;-75
2023/11/29 11:06:37;;;;;;;6.07;2.50;;;2.80;99.90;;;;;;5081419;28;20595;-75
2023/11/29 11:09:04;;;;;;;6.18;2.88;;;2.80;99.90;;;;;;5076807;28;20052;-76
2023/11/29 11:11:40;;;;;;;5.68;2.25;;;2.80;99.90;;;;;;5085928;28;20044;-76
2023/11/29 11:14:19;;;;;;;4.43;2.70;;;2.90;99.90;;;;;;5079192;28;20143;-76
2023/11/29 11:16:56;;;;;;;4.85;2.30;;;3.00;99.90;;;;;;5069137;28;20039;-76
2023/11/29 11:19:36;;;;;;;4.80;2.38;;;3.00;99.90;;;;;;5078056;28;20028;-75
2023/11/29 11:22:06;;;;;;;4.03;2.35;;;3.10;99.90;;;;;;5085285;28;20444;-75
2023/11/29 11:24:59;;;;;;;5.13;2.70;;;3.10;99.90;;;;;;5081394;28;20032;-76
2023/11/29 11:27:46;;;;;;;6.28;2.25;;;3.10;99.90;;;;;;5067605;28;20773;-75
2023/11/29 11:30:17;;;;;;;6.20;2.75;;;3.10;99.90;;;;;;5066302;28;20384;-76
2023/11/29 11:32:54;;;;;;;6.38;2.90;;;3.10;99.90;;;;;;5067947;28;20052;-76
2023/11/29 11:35:21;;;;;;;8.70;3.08;;;3.10;99.90;;;;;;5089778;28;20032;-75
2023/11/29 11:37:55;;;;;;;5.72;2.50;;;3.10;99.90;;;;;;5079052;28;20056;-75
2023/11/29 11:40:23;;;;;;;6.82;3.25;;;3.10;99.90;;;;;;5083240;28;20039;-76
2023/11/29 11:42:50;;;;;;;6.50;3.58;;;3.10;99.90;;;;;;5079283;28;20526;-76
2023/11/29 11:45:16;;;;;;;5.75;3.05;;;3.20;99.90;;;;;;5071298;28;20048;-75
2023/11/29 11:47:43;;;;;;;8.73;3.08;;;3.20;99.90;;;;;;5079345;28;20123;-75
2023/11/29 11:50:09;;;;;;;7.47;3.08;;;3.20;99.90;;;;;;5079972;28;20055;-75
2023/11/29 11:52:36;;;;;;;7.57;3.42;;;3.20;99.90;;;;;;5066776;28;20399;-76
2023/11/29 11:55:03;;;;;;;4.70;2.92;;;3.30;99.90;;;;;;5094222;28;20047;-76
2023/11/29 11:57:30;;;;;;;5.75;3.55;;;3.30;99.90;;;;;;5080282;28;20048;-76
2023/11/29 11:59:59;;;;;;;5.45;3.10;;;3.30;99.90;;;;;;5082872;28;20051;-76
2023/11/29 12:02:26;;;;;;;5.35;3.42;;;3.30;99.90;;;;;;5086691;28;20070;-75
2023/11/29 12:04:56;;;;;;;7.03;4.03;;;3.30;99.90;;;;;;5087863;28;20102;-73
2023/11/29 12:07:25;;;;;;;6.65;3.20;;;3.30;99.90;;;;;;5075517;28;20465;-73
2023/11/29 12:09:51;;;;;;;4.80;2.72;;;3.30;99.90;;;;;;5083145;28;20486;-73
2023/11/29 12:12:19;;;;;;;5.82;2.90;;;3.40;99.90;;;;;;5064979;28;20495;-73
2023/11/29 12:14:47;;;;;;;4.63;2.67;;;3.30;99.90;;;;;;5067072;28;20071;-72
2023/11/29 12:17:18;;;;;;;6.85;2.88;;;3.40;99.90;;;;;;5079151;28;20048;-73
2023/11/29 12:19:49;;;;;;;4.57;2.60;;;3.40;99.90;;;;;;5089362;28;20044;-73
2023/11/29 12:22:17;;;;;;;6.43;3.35;;;3.40;99.90;;;;;;5063932;28;20131;-74
2023/11/29 12:24:44;;;;;;;6.30;2.95;;;3.40;99.90;;;;;;5078421;28;20062;-74
2023/11/29 12:27:12;;;;;;;4.93;2.65;;;3.40;99.90;;;;;;5067564;28;20043;-74
2023/11/29 12:29:41;;;;;;;5.32;2.47;;;3.40;99.90;;;;;;5070128;28;20388;-74
2023/11/29 12:32:08;;;;;;;6.32;2.70;;;3.50;99.90;;;;;;5080077;28;20138;-74
2023/11/29 12:34:34;;;;;;;6.72;2.72;;;3.50;99.90;;;;;;5075700;28;20135;-74
2023/11/29 12:37:01;;;;;;;5.45;2.35;;;3.50;99.90;;;;;;5077271;28;20044;-74
2023/11/29 12:39:27;;;;;;;6.60;2.50;;;3.50;99.90;;;;;;5090393;28;21831;-74
2023/11/29 12:41:54;;;;;;;5.55;2.90;;;3.60;99.90;;;;;;5082344;28;20143;-73
2023/11/29 12:44:20;;;;;;;6.50;3.00;;;3.50;99.90;;;;;;5072311;28;20118;-73
2023/11/29 12:46:46;;;;;;;7.03;2.67;;;3.60;99.90;;;;;;5071014;28;20159;-74